sensor_id;sensor_type;location;lat;lon;timestamp;P1;durP1;ratioP1;P2;durP2;ratioP2
12194;SDS011;27023;42.680;23.132;2022-09-24T00:00:53;15.10;;;14.50;;
12194;SDS011;27023;42.680;23.132;2022-09-24T00:03:21;17.67;;;16.83;;
12194;SDS011;27023;42.680;23.132;2022-09-24T00:05:49;15.23;;;14.60;;
12194;SDS011;27023;42.680;23.132;2022-09-24T00:08:17;16.17;;;15.47;;
12194;SDS011;27023;42.680;23.132;2022-09-24T00:10:45;17.90;;;17.20;;
12194;SDS011;27023;42.680;23.132;2022-09-24T00:13:15;18.33;;;17.60;;
12194;SDS011;27023;42.680;23.132;2022-09-24T00:15:44;18.63;;;17.90;;
12194;SDS011;27023;42.680;23.132;2022-09-24T00:18:13;24.13;;;23.07;;
12194;SDS011;27023;42.680;23.132;2022-09-24T00:20:40;25.80;;;24.63;;
12194;SDS011;27023;42.680;23.132;2022-09-24T00:23:08;25.67;;;24.50;;
12194;SDS011;27023;42.680;23.132;2022-09-24T00:25:38;23.50;;;22.43;;
12194;SDS011;27023;42.680;23.132;2022-09-24T00:28:24;22.67;;;21.73;;
12194;SDS011;27023;42.680;23.132;2022-09-24T00:30:51;22.47;;;21.53;;
12194;SDS011;27023;42.680;23.132;2022-09-24T00:33:18;22.57;;;21.63;;
12194;SDS011;27023;42.680;23.132;2022-09-24T00:35:45;19.23;;;18.47;;
12194;SDS011;27023;42.680;23.132;2022-09-24T00:38:12;17.37;;;16.67;;
12194;SDS011;27023;42.680;23.132;2022-09-24T00:40:39;18.33;;;17.53;;
12194;SDS011;27023;42.680;23.132;2022-09-24T00:43:22;19.23;;;18.40;;
12194;SDS011;27023;42.680;23.132;2022-09-24T00:45:53;17.97;;;17.17;;
12194;SDS011;27023;42.680;23.132;2022-09-24T00:48:22;19.63;;;18.80;;
12194;SDS011;27023;42.680;23.132;2022-09-24T00:50:50;19.40;;;18.60;;
12194;SDS011;27023;42.680;23.132;2022-09-24T00:53:18;18.07;;;17.30;;
12194;SDS011;27023;42.680;23.132;2022-09-24T00:55:50;17.10;;;16.40;;
12194;SDS011;27023;42.680;23.132;2022-09-24T00:58:19;17.60;;;16.87;;
12194;SDS011;27023;42.680;23.132;2022-09-24T01:00:49;22.30;;;21.30;;
12194;SDS011;27023;42.680;23.132;2022-09-24T01:03:22;23.67;;;22.57;;
12194;SDS011;27023;42.680;23.132;2022-09-24T01:05:50;25.43;;;24.23;;
12194;SDS011;27023;42.680;23.132;2022-09-24T01:08:18;26.07;;;24.83;;
12194;SDS011;27023;42.680;23.132;2022-09-24T01:10:49;26.70;;;25.43;;
12194;SDS011;27023;42.680;23.132;2022-09-24T01:13:27;22.23;;;21.30;;
12194;SDS011;27023;42.680;23.132;2022-09-24T01:16:07;20.40;;;19.50;;
12194;SDS011;27023;42.680;23.132;2022-09-24T01:18:42;17.37;;;16.67;;
12194;SDS011;27023;42.680;23.132;2022-09-24T01:21:22;15.40;;;14.80;;
12194;SDS011;27023;42.680;23.132;2022-09-24T01:24:02;15.67;;;15.10;;
12194;SDS011;27023;42.680;23.132;2022-09-24T01:29:49;17.43;;;16.67;;
12194;SDS011;27023;42.680;23.132;2022-09-24T01:32:27;15.97;;;15.37;;
12194;SDS011;27023;42.680;23.132;2022-09-24T01:35:00;13.60;;;13.10;;
12194;SDS011;27023;42.680;23.132;2022-09-24T01:37:32;15.20;;;14.60;;
12194;SDS011;27023;42.680;23.132;2022-09-24T01:40:02;15.07;;;14.47;;
12194;SDS011;27023;42.680;23.132;2022-09-24T01:42:32;15.30;;;14.70;;
12194;SDS011;27023;42.680;23.132;2022-09-24T01:45:02;17.80;;;17.07;;
12194;SDS011;27023;42.680;23.132;2022-09-24T01:47:30;18.67;;;17.87;;
12194;SDS011;27023;42.680;23.132;2022-09-24T01:50:02;18.10;;;17.27;;
12194;SDS011;27023;42.680;23.132;2022-09-24T01:52:30;18.03;;;17.23;;
12194;SDS011;27023;42.680;23.132;2022-09-24T01:55:00;19.27;;;18.43;;
12194;SDS011;27023;42.680;23.132;2022-09-24T01:57:30;20.63;;;19.53;;
12194;SDS011;27023;42.680;23.132;2022-09-24T02:00:04;18.10;;;17.30;;
12194;SDS011;27023;42.680;23.132;2022-09-24T02:02:35;20.30;;;19.40;;
12194;SDS011;27023;42.680;23.132;2022-09-24T02:05:08;17.97;;;17.27;;
12194;SDS011;27023;42.680;23.132;2022-09-24T02:07:41;15.07;;;14.47;;
12194;SDS011;27023;42.680;23.132;2022-09-24T02:10:14;14.03;;;13.43;;
12194;SDS011;27023;42.680;23.132;2022-09-24T02:12:42;13.00;;;12.50;;
12194;SDS011;27023;42.680;23.132;2022-09-24T02:15:14;14.77;;;14.10;;
12194;SDS011;27023;42.680;23.132;2022-09-24T02:17:45;12.67;;;12.27;;
12194;SDS011;27023;42.680;23.132;2022-09-24T02:20:15;13.67;;;13.17;;
12194;SDS011;27023;42.680;23.132;2022-09-24T02:22:46;14.40;;;13.80;;
12194;SDS011;27023;42.680;23.132;2022-09-24T02:25:16;14.80;;;14.20;;
12194;SDS011;27023;42.680;23.132;2022-09-24T02:27:46;14.43;;;13.70;;
12194;SDS011;27023;42.680;23.132;2022-09-24T02:30:14;14.23;;;13.73;;
12194;SDS011;27023;42.680;23.132;2022-09-24T02:32:41;14.90;;;14.30;;
12194;SDS011;27023;42.680;23.132;2022-09-24T02:35:10;14.40;;;13.80;;
12194;SDS011;27023;42.680;23.132;2022-09-24T02:37:37;16.63;;;15.93;;
12194;SDS011;27023;42.680;23.132;2022-09-24T02:40:07;16.67;;;15.97;;
12194;SDS011;27023;42.680;23.132;2022-09-24T02:42:36;14.33;;;13.73;;
12194;SDS011;27023;42.680;23.132;2022-09-24T02:45:04;14.93;;;14.23;;
12194;SDS011;27023;42.680;23.132;2022-09-24T02:47:33;17.73;;;16.97;;
12194;SDS011;27023;42.680;23.132;2022-09-24T02:49:59;16.13;;;15.50;;
12194;SDS011;27023;42.680;23.132;2022-09-24T02:52:26;13.97;;;13.47;;
12194;SDS011;27023;42.680;23.132;2022-09-24T02:54:53;13.37;;;12.70;;
12194;SDS011;27023;42.680;23.132;2022-09-24T02:57:20;13.63;;;13.03;;
12194;SDS011;27023;42.680;23.132;2022-09-24T02:59:46;13.93;;;13.33;;
12194;SDS011;27023;42.680;23.132;2022-09-24T03:02:13;13.40;;;12.90;;
12194;SDS011;27023;42.680;23.132;2022-09-24T03:04:41;15.57;;;14.97;;
12194;SDS011;27023;42.680;23.132;2022-09-24T03:07:08;17.80;;;17.00;;
12194;SDS011;27023;42.680;23.132;2022-09-24T03:09:39;17.23;;;16.33;;
12194;SDS011;27023;42.680;23.132;2022-09-24T03:12:05;16.23;;;15.53;;
12194;SDS011;27023;42.680;23.132;2022-09-24T03:14:32;16.60;;;15.90;;
12194;SDS011;27023;42.680;23.132;2022-09-24T03:16:59;16.53;;;15.87;;
12194;SDS011;27023;42.680;23.132;2022-09-24T03:19:25;17.37;;;16.63;;
12194;SDS011;27023;42.680;23.132;2022-09-24T03:21:53;18.50;;;17.70;;
12194;SDS011;27023;42.680;23.132;2022-09-24T03:24:20;12.63;;;12.23;;
12194;SDS011;27023;42.680;23.132;2022-09-24T03:26:47;11.87;;;11.43;;
12194;SDS011;27023;42.680;23.132;2022-09-24T03:29:14;12.67;;;12.17;;
12194;SDS011;27023;42.680;23.132;2022-09-24T03:31:40;12.73;;;12.23;;
12194;SDS011;27023;42.680;23.132;2022-09-24T03:34:06;13.67;;;13.07;;
12194;SDS011;27023;42.680;23.132;2022-09-24T03:36:33;13.73;;;13.07;;
12194;SDS011;27023;42.680;23.132;2022-09-24T03:39:01;14.03;;;13.47;;
12194;SDS011;27023;42.680;23.132;2022-09-24T03:41:28;14.27;;;13.67;;
12194;SDS011;27023;42.680;23.132;2022-09-24T03:43:54;13.50;;;13.00;;
12194;SDS011;27023;42.680;23.132;2022-09-24T03:46:21;18.27;;;17.57;;
12194;SDS011;27023;42.680;23.132;2022-09-24T03:48:53;18.00;;;17.23;;
12194;SDS011;27023;42.680;23.132;2022-09-24T03:51:20;18.03;;;17.23;;
12194;SDS011;27023;42.680;23.132;2022-09-24T03:53:47;14.37;;;13.80;;
12194;SDS011;27023;42.680;23.132;2022-09-24T03:56:15;21.30;;;20.30;;
12194;SDS011;27023;42.680;23.132;2022-09-24T03:58:42;20.63;;;19.77;;
12194;SDS011;27023;42.680;23.132;2022-09-24T04:01:11;19.53;;;18.63;;
12194;SDS011;27023;42.680;23.132;2022-09-24T04:03:38;17.67;;;16.83;;
12194;SDS011;27023;42.680;23.132;2022-09-24T04:06:05;15.70;;;15.03;;
12194;SDS011;27023;42.680;23.132;2022-09-24T04:08:33;15.30;;;14.63;;
12194;SDS011;27023;42.680;23.132;2022-09-24T04:10:59;16.07;;;15.47;;
12194;SDS011;27023;42.680;23.132;2022-09-24T04:13:27;15.60;;;15.00;;
12194;SDS011;27023;42.680;23.132;2022-09-24T04:15:54;13.90;;;13.30;;
12194;SDS011;27023;42.680;23.132;2022-09-24T04:18:21;15.10;;;14.57;;
12194;SDS011;27023;42.680;23.132;2022-09-24T04:20:48;15.23;;;14.73;;
12194;SDS011;27023;42.680;23.132;2022-09-24T04:23:14;16.20;;;15.57;;
12194;SDS011;27023;42.680;23.132;2022-09-24T04:25:41;15.60;;;15.00;;
12194;SDS011;27023;42.680;23.132;2022-09-24T04:28:08;17.20;;;16.50;;
12194;SDS011;27023;42.680;23.132;2022-09-24T04:30:37;14.43;;;13.93;;
12194;SDS011;27023;42.680;23.132;2022-09-24T04:33:04;13.83;;;13.33;;
12194;SDS011;27023;42.680;23.132;2022-09-24T04:35:32;14.70;;;14.20;;
12194;SDS011;27023;42.680;23.132;2022-09-24T04:38:01;15.37;;;14.77;;
12194;SDS011;27023;42.680;23.132;2022-09-24T04:40:28;14.40;;;13.90;;
12194;SDS011;27023;42.680;23.132;2022-09-24T04:42:56;13.07;;;12.63;;
12194;SDS011;27023;42.680;23.132;2022-09-24T04:45:23;12.50;;;12.10;;
12194;SDS011;27023;42.680;23.132;2022-09-24T05:08:32;1.27;;;1.27;;
12194;SDS011;27023;42.680;23.132;2022-09-24T05:10:59;1.30;;;1.30;;
12194;SDS011;27023;42.680;23.132;2022-09-24T05:13:26;5.27;;;5.17;;
12194;SDS011;27023;42.680;23.132;2022-09-24T05:15:53;8.50;;;8.20;;
12194;SDS011;27023;42.680;23.132;2022-09-24T05:18:19;8.33;;;8.13;;
12194;SDS011;27023;42.680;23.132;2022-09-24T05:20:46;11.33;;;10.93;;
12194;SDS011;27023;42.680;23.132;2022-09-24T05:23:13;11.23;;;10.83;;
12194;SDS011;27023;42.680;23.132;2022-09-24T05:25:41;11.43;;;11.03;;
12194;SDS011;27023;42.680;23.132;2022-09-24T05:28:22;15.60;;;14.50;;
12194;SDS011;27023;42.680;23.132;2022-09-24T05:30:48;12.77;;;12.30;;
12194;SDS011;27023;42.680;23.132;2022-09-24T05:33:15;11.40;;;11.07;;
12194;SDS011;27023;42.680;23.132;2022-09-24T05:35:42;12.03;;;11.63;;
12194;SDS011;27023;42.680;23.132;2022-09-24T05:38:08;13.83;;;13.37;;
12194;SDS011;27023;42.680;23.132;2022-09-24T05:40:35;15.07;;;14.57;;
12194;SDS011;27023;42.680;23.132;2022-09-24T05:43:16;11.60;;;11.23;;
12194;SDS011;27023;42.680;23.132;2022-09-24T05:45:44;11.57;;;11.17;;
12194;SDS011;27023;42.680;23.132;2022-09-24T05:48:11;17.40;;;16.60;;
12194;SDS011;27023;42.680;23.132;2022-09-24T05:50:38;16.00;;;15.30;;
12194;SDS011;27023;42.680;23.132;2022-09-24T05:53:05;17.87;;;17.17;;
12194;SDS011;27023;42.680;23.132;2022-09-24T05:55:33;17.17;;;16.47;;
12194;SDS011;27023;42.680;23.132;2022-09-24T05:58:01;18.97;;;18.17;;
12194;SDS011;27023;42.680;23.132;2022-09-24T06:00:30;13.63;;;13.13;;
12194;SDS011;27023;42.680;23.132;2022-09-24T06:03:00;12.20;;;11.80;;
12194;SDS011;27023;42.680;23.132;2022-09-24T06:05:29;12.30;;;11.90;;
12194;SDS011;27023;42.680;23.132;2022-09-24T06:07:57;11.40;;;11.00;;
12194;SDS011;27023;42.680;23.132;2022-09-24T06:10:23;11.50;;;11.10;;
12194;SDS011;27023;42.680;23.132;2022-09-24T06:12:51;13.97;;;13.47;;
12194;SDS011;27023;42.680;23.132;2022-09-24T06:15:18;15.43;;;14.87;;
12194;SDS011;27023;42.680;23.132;2022-09-24T06:17:46;14.63;;;14.03;;
12194;SDS011;27023;42.680;23.132;2022-09-24T06:20:13;13.77;;;13.27;;
12194;SDS011;27023;42.680;23.132;2022-09-24T06:22:40;14.63;;;14.13;;
12194;SDS011;27023;42.680;23.132;2022-09-24T06:25:07;16.63;;;16.03;;
12194;SDS011;27023;42.680;23.132;2022-09-24T06:27:35;15.70;;;15.10;;
12194;SDS011;27023;42.680;23.132;2022-09-24T06:30:01;16.27;;;15.57;;
12194;SDS011;27023;42.680;23.132;2022-09-24T06:32:28;13.73;;;13.23;;
12194;SDS011;27023;42.680;23.132;2022-09-24T06:34:57;11.80;;;11.40;;
12194;SDS011;27023;42.680;23.132;2022-09-24T06:37:23;14.23;;;13.73;;
12194;SDS011;27023;42.680;23.132;2022-09-24T06:39:50;12.30;;;11.90;;
12194;SDS011;27023;42.680;23.132;2022-09-24T06:42:17;13.93;;;13.43;;
12194;SDS011;27023;42.680;23.132;2022-09-24T06:44:44;12.50;;;12.10;;
12194;SDS011;27023;42.680;23.132;2022-09-24T06:47:12;15.17;;;14.60;;
12194;SDS011;27023;42.680;23.132;2022-09-24T06:49:39;18.53;;;17.77;;
12194;SDS011;27023;42.680;23.132;2022-09-24T06:52:07;15.97;;;15.37;;
12194;SDS011;27023;42.680;23.132;2022-09-24T06:54:34;13.23;;;12.77;;
12194;SDS011;27023;42.680;23.132;2022-09-24T06:57:00;13.97;;;13.47;;
12194;SDS011;27023;42.680;23.132;2022-09-24T06:59:28;13.47;;;12.97;;
12194;SDS011;27023;42.680;23.132;2022-09-24T07:01:55;15.83;;;15.20;;
12194;SDS011;27023;42.680;23.132;2022-09-24T07:04:23;15.43;;;14.83;;
12194;SDS011;27023;42.680;23.132;2022-09-24T07:06:50;15.50;;;14.90;;
12194;SDS011;27023;42.680;23.132;2022-09-24T07:09:35;17.73;;;17.03;;
12194;SDS011;27023;42.680;23.132;2022-09-24T07:12:04;15.20;;;14.63;;
12194;SDS011;27023;42.680;23.132;2022-09-24T07:14:33;14.40;;;13.90;;
12194;SDS011;27023;42.680;23.132;2022-09-24T07:17:00;14.43;;;13.93;;
12194;SDS011;27023;42.680;23.132;2022-09-24T07:19:30;12.50;;;12.10;;
12194;SDS011;27023;42.680;23.132;2022-09-24T07:21:56;10.77;;;10.47;;
12194;SDS011;27023;42.680;23.132;2022-09-24T07:24:23;12.50;;;12.10;;
12194;SDS011;27023;42.680;23.132;2022-09-24T07:26:51;9.50;;;9.20;;
12194;SDS011;27023;42.680;23.132;2022-09-24T07:29:18;7.27;;;7.17;;
12194;SDS011;27023;42.680;23.132;2022-09-24T07:31:45;7.67;;;7.53;;
12194;SDS011;27023;42.680;23.132;2022-09-24T07:34:12;8.43;;;8.23;;
12194;SDS011;27023;42.680;23.132;2022-09-24T07:36:39;7.13;;;7.03;;
12194;SDS011;27023;42.680;23.132;2022-09-24T07:39:05;6.83;;;6.73;;
12194;SDS011;27023;42.680;23.132;2022-09-24T07:41:32;5.53;;;5.43;;
12194;SDS011;27023;42.680;23.132;2022-09-24T07:44:01;4.53;;;4.53;;
12194;SDS011;27023;42.680;23.132;2022-09-24T07:46:30;4.87;;;4.77;;
12194;SDS011;27023;42.680;23.132;2022-09-24T07:48:57;4.23;;;4.13;;
12194;SDS011;27023;42.680;23.132;2022-09-24T07:51:24;2.57;;;2.00;;
12194;SDS011;27023;42.680;23.132;2022-09-24T07:53:52;4.60;;;4.60;;
12194;SDS011;27023;42.680;23.132;2022-09-24T07:56:20;1.73;;;1.73;;
12194;SDS011;27023;42.680;23.132;2022-09-24T07:58:47;6.43;;;6.23;;
12194;SDS011;27023;42.680;23.132;2022-09-24T08:01:16;7.97;;;7.73;;
12194;SDS011;27023;42.680;23.132;2022-09-24T08:03:43;10.10;;;9.73;;
12194;SDS011;27023;42.680;23.132;2022-09-24T08:06:10;5.70;;;5.27;;
12194;SDS011;27023;42.680;23.132;2022-09-24T08:08:37;5.87;;;5.67;;
12194;SDS011;27023;42.680;23.132;2022-09-24T08:11:04;4.60;;;4.50;;
12194;SDS011;27023;42.680;23.132;2022-09-24T08:13:32;3.53;;;3.53;;
12194;SDS011;27023;42.680;23.132;2022-09-24T08:15:59;3.70;;;3.70;;
12194;SDS011;27023;42.680;23.132;2022-09-24T08:18:28;3.87;;;3.83;;
12194;SDS011;27023;42.680;23.132;2022-09-24T08:20:56;2.53;;;2.53;;
12194;SDS011;27023;42.680;23.132;2022-09-24T08:23:24;2.57;;;2.57;;
12194;SDS011;27023;42.680;23.132;2022-09-24T08:25:52;2.93;;;2.93;;
12194;SDS011;27023;42.680;23.132;2022-09-24T08:28:19;2.00;;;2.00;;
12194;SDS011;27023;42.680;23.132;2022-09-24T08:30:46;2.60;;;2.60;;
12194;SDS011;27023;42.680;23.132;2022-09-24T08:33:13;2.50;;;2.50;;
12194;SDS011;27023;42.680;23.132;2022-09-24T08:35:41;2.37;;;2.37;;
12194;SDS011;27023;42.680;23.132;2022-09-24T08:38:08;2.10;;;2.10;;
12194;SDS011;27023;42.680;23.132;2022-09-24T08:40:36;2.70;;;2.70;;
12194;SDS011;27023;42.680;23.132;2022-09-24T08:43:09;1.57;;;1.57;;
12194;SDS011;27023;42.680;23.132;2022-09-24T08:45:47;2.17;;;2.17;;
12194;SDS011;27023;42.680;23.132;2022-09-24T08:48:35;1.60;;;1.60;;
12194;SDS011;27023;42.680;23.132;2022-09-24T08:51:10;1.33;;;1.33;;
12194;SDS011;27023;42.680;23.132;2022-09-24T08:53:43;1.43;;;1.43;;
12194;SDS011;27023;42.680;23.132;2022-09-24T08:56:15;1.57;;;1.57;;
12194;SDS011;27023;42.680;23.132;2022-09-24T08:58:45;1.53;;;1.53;;
12194;SDS011;27023;42.680;23.132;2022-09-24T09:01:20;1.10;;;1.10;;
12194;SDS011;27023;42.680;23.132;2022-09-24T09:03:57;1.27;;;1.27;;
12194;SDS011;27023;42.680;23.132;2022-09-24T09:06:37;1.90;;;1.90;;
12194;SDS011;27023;42.680;23.132;2022-09-24T09:09:18;1.07;;;1.07;;
12194;SDS011;27023;42.680;23.132;2022-09-24T09:11:49;1.30;;;1.30;;
12194;SDS011;27023;42.680;23.132;2022-09-24T09:14:18;1.50;;;1.50;;
12194;SDS011;27023;42.680;23.132;2022-09-24T09:16:49;1.03;;;1.03;;
12194;SDS011;27023;42.680;23.132;2022-09-24T09:19:20;1.30;;;1.30;;
12194;SDS011;27023;42.680;23.132;2022-09-24T09:21:52;1.03;;;1.03;;
12194;SDS011;27023;42.680;23.132;2022-09-24T09:24:25;1.20;;;1.20;;
12194;SDS011;27023;42.680;23.132;2022-09-24T09:26:59;0.90;;;0.90;;
12194;SDS011;27023;42.680;23.132;2022-09-24T09:29:27;1.37;;;1.37;;
12194;SDS011;27023;42.680;23.132;2022-09-24T09:31:57;1.70;;;1.70;;
12194;SDS011;27023;42.680;23.132;2022-09-24T09:34:41;1.40;;;1.40;;
12194;SDS011;27023;42.680;23.132;2022-09-24T09:37:20;1.67;;;1.57;;
12194;SDS011;27023;42.680;23.132;2022-09-24T09:39:55;1.00;;;1.00;;
12194;SDS011;27023;42.680;23.132;2022-09-24T09:42:30;1.10;;;1.10;;
12194;SDS011;27023;42.680;23.132;2022-09-24T09:45:00;1.07;;;1.07;;
12194;SDS011;27023;42.680;23.132;2022-09-24T09:47:33;1.20;;;1.20;;
12194;SDS011;27023;42.680;23.132;2022-09-24T09:50:09;1.03;;;1.03;;
12194;SDS011;27023;42.680;23.132;2022-09-24T09:52:47;1.47;;;1.47;;
12194;SDS011;27023;42.680;23.132;2022-09-24T09:55:24;1.10;;;1.10;;
12194;SDS011;27023;42.680;23.132;2022-09-24T09:57:52;1.00;;;1.00;;
12194;SDS011;27023;42.680;23.132;2022-09-24T10:00:26;1.57;;;1.50;;
12194;SDS011;27023;42.680;23.132;2022-09-24T10:02:59;1.33;;;1.33;;
12194;SDS011;27023;42.680;23.132;2022-09-24T10:05:26;1.07;;;1.07;;
12194;SDS011;27023;42.680;23.132;2022-09-24T10:07:55;1.00;;;1.00;;
12194;SDS011;27023;42.680;23.132;2022-09-24T10:10:23;1.57;;;1.47;;
12194;SDS011;27023;42.680;23.132;2022-09-24T10:12:51;1.47;;;1.47;;
12194;SDS011;27023;42.680;23.132;2022-09-24T10:15:19;1.20;;;1.20;;
12194;SDS011;27023;42.680;23.132;2022-09-24T10:17:49;1.00;;;1.00;;
12194;SDS011;27023;42.680;23.132;2022-09-24T10:20:20;1.30;;;1.20;;
12194;SDS011;27023;42.680;23.132;2022-09-24T10:22:52;1.50;;;1.50;;
12194;SDS011;27023;42.680;23.132;2022-09-24T10:25:23;1.47;;;1.47;;
12194;SDS011;27023;42.680;23.132;2022-09-24T10:27:52;1.43;;;1.40;;
12194;SDS011;27023;42.680;23.132;2022-09-24T10:30:47;1.27;;;1.27;;
12194;SDS011;27023;42.680;23.132;2022-09-24T10:33:17;1.40;;;1.40;;
12194;SDS011;27023;42.680;23.132;2022-09-24T10:35:44;1.10;;;1.10;;
12194;SDS011;27023;42.680;23.132;2022-09-24T10:38:16;1.43;;;1.43;;
12194;SDS011;27023;42.680;23.132;2022-09-24T10:40:44;1.03;;;1.03;;
12194;SDS011;27023;42.680;23.132;2022-09-24T10:43:15;1.20;;;1.20;;
12194;SDS011;27023;42.680;23.132;2022-09-24T10:48:53;1.30;;;1.30;;
12194;SDS011;27023;42.680;23.132;2022-09-24T10:51:30;1.37;;;1.37;;
12194;SDS011;27023;42.680;23.132;2022-09-24T10:54:08;1.67;;;1.67;;
12194;SDS011;27023;42.680;23.132;2022-09-24T10:56:51;1.67;;;1.67;;
12194;SDS011;27023;42.680;23.132;2022-09-24T10:59:26;1.57;;;1.57;;
12194;SDS011;27023;42.680;23.132;2022-09-24T11:05:04;1.50;;;1.50;;
12194;SDS011;27023;42.680;23.132;2022-09-24T11:07:43;0.70;;;0.70;;
12194;SDS011;27023;42.680;23.132;2022-09-24T11:10:29;0.80;;;0.80;;
12194;SDS011;27023;42.680;23.132;2022-09-24T11:13:11;1.07;;;1.07;;
12194;SDS011;27023;42.680;23.132;2022-09-24T11:16:03;0.93;;;0.93;;
12194;SDS011;27023;42.680;23.132;2022-09-24T11:18:50;1.10;;;1.10;;
12194;SDS011;27023;42.680;23.132;2022-09-24T11:21:27;1.10;;;1.10;;
12194;SDS011;27023;42.680;23.132;2022-09-24T11:24:05;1.37;;;1.37;;
12194;SDS011;27023;42.680;23.132;2022-09-24T11:26:47;1.47;;;1.47;;
12194;SDS011;27023;42.680;23.132;2022-09-24T11:29:25;1.33;;;1.33;;
12194;SDS011;27023;42.680;23.132;2022-09-24T11:32:09;1.93;;;1.83;;
12194;SDS011;27023;42.680;23.132;2022-09-24T11:37:35;1.53;;;1.53;;
12194;SDS011;27023;42.680;23.132;2022-09-24T11:40:16;1.40;;;1.40;;
12194;SDS011;27023;42.680;23.132;2022-09-24T11:43:16;1.10;;;1.10;;
12194;SDS011;27023;42.680;23.132;2022-09-24T11:46:04;0.93;;;0.93;;
12194;SDS011;27023;42.680;23.132;2022-09-24T11:48:52;1.30;;;1.30;;
12194;SDS011;27023;42.680;23.132;2022-09-24T11:51:38;0.93;;;0.93;;
12194;SDS011;27023;42.680;23.132;2022-09-24T11:54:16;1.20;;;1.20;;
12194;SDS011;27023;42.680;23.132;2022-09-24T11:56:49;0.93;;;0.93;;
12194;SDS011;27023;42.680;23.132;2022-09-24T11:59:25;0.97;;;0.97;;
12194;SDS011;27023;42.680;23.132;2022-09-24T12:01:59;1.40;;;1.40;;
12194;SDS011;27023;42.680;23.132;2022-09-24T12:04:37;1.07;;;1.07;;
12194;SDS011;27023;42.680;23.132;2022-09-24T12:07:12;1.13;;;1.13;;
12194;SDS011;27023;42.680;23.132;2022-09-24T12:09:43;1.23;;;1.23;;
12194;SDS011;27023;42.680;23.132;2022-09-24T12:12:17;0.90;;;0.90;;
12194;SDS011;27023;42.680;23.132;2022-09-24T12:14:50;1.10;;;1.10;;
12194;SDS011;27023;42.680;23.132;2022-09-24T12:17:23;1.10;;;1.10;;
12194;SDS011;27023;42.680;23.132;2022-09-24T12:19:54;3.73;;;2.37;;
12194;SDS011;27023;42.680;23.132;2022-09-24T12:22:24;1.10;;;1.10;;
12194;SDS011;27023;42.680;23.132;2022-09-24T12:24:54;1.27;;;1.27;;
12194;SDS011;27023;42.680;23.132;2022-09-24T12:27:25;0.70;;;0.70;;
12194;SDS011;27023;42.680;23.132;2022-09-24T12:29:59;0.93;;;0.93;;
12194;SDS011;27023;42.680;23.132;2022-09-24T12:32:51;1.20;;;1.20;;
12194;SDS011;27023;42.680;23.132;2022-09-24T12:35:30;1.10;;;1.10;;
12194;SDS011;27023;42.680;23.132;2022-09-24T12:38:05;1.73;;;1.67;;
12194;SDS011;27023;42.680;23.132;2022-09-24T12:43:53;1.00;;;1.00;;
12194;SDS011;27023;42.680;23.132;2022-09-24T12:46:27;1.33;;;1.33;;
12194;SDS011;27023;42.680;23.132;2022-09-24T12:48:58;3.13;;;2.93;;
12194;SDS011;27023;42.680;23.132;2022-09-24T12:51:32;2.17;;;2.17;;
12194;SDS011;27023;42.680;23.132;2022-09-24T12:54:04;3.47;;;3.43;;
12194;SDS011;27023;42.680;23.132;2022-09-24T12:56:32;3.30;;;3.30;;
12194;SDS011;27023;42.680;23.132;2022-09-24T12:58:59;3.30;;;3.30;;
12194;SDS011;27023;42.680;23.132;2022-09-24T13:01:31;3.33;;;3.33;;
12194;SDS011;27023;42.680;23.132;2022-09-24T13:06:53;2.97;;;2.90;;
12194;SDS011;27023;42.680;23.132;2022-09-24T13:09:25;2.87;;;2.87;;
12194;SDS011;27023;42.680;23.132;2022-09-24T13:12:03;2.37;;;2.37;;
12194;SDS011;27023;42.680;23.132;2022-09-24T13:14:32;1.73;;;1.73;;
12194;SDS011;27023;42.680;23.132;2022-09-24T13:17:04;3.07;;;2.97;;
12194;SDS011;27023;42.680;23.132;2022-09-24T13:19:33;2.13;;;2.13;;
12194;SDS011;27023;42.680;23.132;2022-09-24T13:22:02;3.00;;;2.93;;
12194;SDS011;27023;42.680;23.132;2022-09-24T13:24:31;1.93;;;1.93;;
12194;SDS011;27023;42.680;23.132;2022-09-24T13:27:08;1.43;;;1.43;;
12194;SDS011;27023;42.680;23.132;2022-09-24T13:29:46;1.70;;;1.70;;
12194;SDS011;27023;42.680;23.132;2022-09-24T13:32:20;1.53;;;1.53;;
12194;SDS011;27023;42.680;23.132;2022-09-24T13:34:47;1.60;;;1.60;;
12194;SDS011;27023;42.680;23.132;2022-09-24T13:37:18;1.33;;;1.33;;
12194;SDS011;27023;42.680;23.132;2022-09-24T13:39:49;1.70;;;1.60;;
12194;SDS011;27023;42.680;23.132;2022-09-24T13:42:18;1.20;;;1.20;;
12194;SDS011;27023;42.680;23.132;2022-09-24T13:44:51;1.37;;;1.37;;
12194;SDS011;27023;42.680;23.132;2022-09-24T13:47:25;1.47;;;1.47;;
12194;SDS011;27023;42.680;23.132;2022-09-24T13:49:55;1.43;;;1.43;;
12194;SDS011;27023;42.680;23.132;2022-09-24T13:52:33;0.90;;;0.90;;
12194;SDS011;27023;42.680;23.132;2022-09-24T13:55:05;1.40;;;1.40;;
12194;SDS011;27023;42.680;23.132;2022-09-24T13:57:41;1.20;;;1.20;;
12194;SDS011;27023;42.680;23.132;2022-09-24T14:00:13;1.10;;;1.10;;
12194;SDS011;27023;42.680;23.132;2022-09-24T14:02:44;0.90;;;0.90;;
12194;SDS011;27023;42.680;23.132;2022-09-24T14:05:19;1.17;;;1.17;;
12194;SDS011;27023;42.680;23.132;2022-09-24T14:07:57;1.37;;;1.37;;
12194;SDS011;27023;42.680;23.132;2022-09-24T14:10:28;1.20;;;1.20;;
12194;SDS011;27023;42.680;23.132;2022-09-24T14:13:06;0.97;;;0.97;;
12194;SDS011;27023;42.680;23.132;2022-09-24T14:15:51;1.57;;;1.57;;
12194;SDS011;27023;42.680;23.132;2022-09-24T14:18:20;13.93;;;2.33;;
12194;SDS011;27023;42.680;23.132;2022-09-24T14:20:48;0.83;;;0.83;;
12194;SDS011;27023;42.680;23.132;2022-09-24T14:23:20;0.87;;;0.87;;
12194;SDS011;27023;42.680;23.132;2022-09-24T14:25:51;0.93;;;0.93;;
12194;SDS011;27023;42.680;23.132;2022-09-24T14:28:20;0.97;;;0.97;;
12194;SDS011;27023;42.680;23.132;2022-09-24T14:30:48;0.83;;;0.83;;
12194;SDS011;27023;42.680;23.132;2022-09-24T14:33:20;0.80;;;0.80;;
12194;SDS011;27023;42.680;23.132;2022-09-24T14:35:50;0.87;;;0.87;;
12194;SDS011;27023;42.680;23.132;2022-09-24T14:38:19;1.03;;;1.03;;
12194;SDS011;27023;42.680;23.132;2022-09-24T14:40:51;1.10;;;1.10;;
12194;SDS011;27023;42.680;23.132;2022-09-24T14:43:21;1.40;;;1.40;;
12194;SDS011;27023;42.680;23.132;2022-09-24T14:45:58;0.97;;;0.97;;
12194;SDS011;27023;42.680;23.132;2022-09-24T14:48:30;1.00;;;1.00;;
12194;SDS011;27023;42.680;23.132;2022-09-24T14:50:57;1.17;;;1.17;;
12194;SDS011;27023;42.680;23.132;2022-09-24T14:53:25;0.93;;;0.93;;
12194;SDS011;27023;42.680;23.132;2022-09-24T14:55:54;0.83;;;0.83;;
12194;SDS011;27023;42.680;23.132;2022-09-24T14:58:30;1.00;;;1.00;;
12194;SDS011;27023;42.680;23.132;2022-09-24T15:01:01;1.73;;;1.73;;
12194;SDS011;27023;42.680;23.132;2022-09-24T15:03:35;1.00;;;1.00;;
12194;SDS011;27023;42.680;23.132;2022-09-24T15:06:05;1.00;;;1.00;;
12194;SDS011;27023;42.680;23.132;2022-09-24T15:08:41;1.00;;;1.00;;
12194;SDS011;27023;42.680;23.132;2022-09-24T15:11:13;0.83;;;0.83;;
12194;SDS011;27023;42.680;23.132;2022-09-24T15:13:42;0.67;;;0.67;;
12194;SDS011;27023;42.680;23.132;2022-09-24T15:16:16;1.27;;;1.27;;
12194;SDS011;27023;42.680;23.132;2022-09-24T15:18:48;1.87;;;1.73;;
12194;SDS011;27023;42.680;23.132;2022-09-24T15:21:23;1.30;;;1.30;;
12194;SDS011;27023;42.680;23.132;2022-09-24T15:23:51;1.07;;;1.07;;